Time;durP1;ratioP1;P1;durP2;ratioP2;P2;SDS_P1;SDS_P2;PMS_P1;PMS_P2;Temp;Humidity;BMP_temperature;BMP_pressure;BME280_temperature;BME280_humidity;BME280_pressure;Samples;Min_cycle;Max_cycle;Signal;HPM_P1;HPM_P2
2022/11/22 00:02:07;;;;;;;43.70;22.70;;;7.50;99.90;;;;;;5029940;28;20041;-66
2022/11/22 00:04:32;;;;;;;43.38;22.67;;;7.40;99.90;;;;;;5032616;28;20048;-66
2022/11/22 00:06:58;;;;;;;43.35;21.88;;;7.40;99.90;;;;;;5034335;28;20128;-65
2022/11/22 00:09:23;;;;;;;44.58;23.73;;;7.50;99.90;;;;;;5034550;28;20456;-66
2022/11/22 00:11:49;;;;;;;37.55;19.98;;;7.10;99.90;;;;;;5026163;28;20057;-65
2022/11/22 00:14:14;;;;;;;47.80;22.08;;;7.30;99.90;;;;;;5031762;28;20120;-66
2022/11/22 00:16:40;;;;;;;41.58;21.92;;;7.20;99.90;;;;;;5034683;28;20135;-65
2022/11/22 00:19:05;;;;;;;34.47;18.58;;;7.30;99.90;;;;;;5025517;28;20045;-66
2022/11/22 00:21:31;;;;;;;34.88;18.52;;;7.10;99.90;;;;;;5034395;28;20025;-66
2022/11/22 00:23:56;;;;;;;43.58;20.75;;;6.80;99.90;;;;;;5033729;28;20052;-66
2022/11/22 00:26:25;;;;;;;41.65;23.25;;;6.80;99.90;;;;;;5033998;28;20037;-66
2022/11/22 00:28:51;;;;;;;39.35;22.10;;;7.20;99.90;;;;;;5027268;28;20065;-66
2022/11/22 00:31:17;;;;;;;35.53;18.83;;;7.40;99.90;;;;;;5028970;28;20681;-65
2022/11/22 00:33:42;;;;;;;46.33;22.80;;;7.10;99.90;;;;;;5032502;28;20044;-65
2022/11/22 00:36:08;;;;;;;36.67;20.13;;;7.00;99.90;;;;;;5034283;28;20042;-66
2022/11/22 00:38:33;;;;;;;41.55;20.55;;;7.40;99.90;;;;;;5033814;28;20052;-66
2022/11/22 00:40:59;;;;;;;34.15;17.88;;;7.10;99.90;;;;;;5005401;28;20120;-66
2022/11/22 00:43:24;;;;;;;32.20;18.33;;;7.10;99.90;;;;;;5021973;28;20037;-66
2022/11/22 00:45:50;;;;;;;30.38;17.08;;;6.90;99.90;;;;;;5022559;28;20398;-65
2022/11/22 00:48:15;;;;;;;29.02;16.15;;;7.00;99.90;;;;;;5028947;28;20033;-65
2022/11/22 00:50:41;;;;;;;29.15;18.00;;;7.00;99.90;;;;;;5033241;28;20033;-65
2022/11/22 00:53:07;;;;;;;33.83;17.33;;;7.10;99.90;;;;;;5031551;28;20037;-66
2022/11/22 00:55:32;;;;;;;29.88;18.45;;;6.90;99.90;;;;;;5034101;28;20045;-66
2022/11/22 00:57:58;;;;;;;27.58;15.02;;;7.30;99.90;;;;;;5015810;28;20076;-65
2022/11/22 01:00:23;;;;;;;30.77;18.10;;;7.30;99.90;;;;;;5020076;28;20488;-66
2022/11/22 01:02:49;;;;;;;34.03;17.60;;;7.20;99.90;;;;;;5026617;28;20042;-66
2022/11/22 01:05:16;;;;;;;35.15;18.13;;;7.40;99.90;;;;;;5031895;28;20399;-65
2022/11/22 01:07:43;;;;;;;29.63;16.75;;;7.50;99.90;;;;;;5026112;28;20072;-65
2022/11/22 01:10:09;;;;;;;26.30;12.82;;;7.40;99.90;;;;;;5033000;28;20049;-65
2022/11/22 01:12:35;;;;;;;31.30;15.85;;;7.30;99.90;;;;;;5032735;28;20142;-65
2022/11/22 01:15:01;;;;;;;27.10;14.25;;;7.00;99.90;;;;;;5025088;28;20514;-65
2022/11/22 01:17:26;;;;;;;22.98;13.98;;;7.10;99.90;;;;;;5024847;28;20111;-65
2022/11/22 01:19:52;;;;;;;33.20;17.60;;;7.20;99.90;;;;;;5033368;28;20036;-65
2022/11/22 01:22:17;;;;;;;22.75;13.90;;;7.30;99.90;;;;;;5024725;28;20070;-65
2022/11/22 01:24:43;;;;;;;27.27;14.70;;;7.20;99.90;;;;;;5029998;28;20407;-66
2022/11/22 01:27:09;;;;;;;26.48;13.93;;;7.30;99.90;;;;;;5032963;28;20029;-66
2022/11/22 01:29:34;;;;;;;20.67;11.00;;;7.40;99.90;;;;;;5033101;28;20041;-66
2022/11/22 01:32:00;;;;;;;24.90;11.30;;;7.30;99.90;;;;;;5032149;28;20048;-66
2022/11/22 01:34:25;;;;;;;26.48;13.85;;;7.50;99.90;;;;;;5028705;28;20045;-66
2022/11/22 01:36:51;;;;;;;20.13;12.30;;;7.30;99.90;;;;;;5022009;28;20033;-66
2022/11/22 01:39:16;;;;;;;24.85;13.90;;;7.30;99.90;;;;;;5029879;28;20036;-65
2022/11/22 01:41:42;;;;;;;27.90;14.50;;;7.20;99.90;;;;;;5032274;28;20065;-66
2022/11/22 01:44:43;;;;;;;24.08;11.32;;;7.40;99.90;;;;;;5026323;28;20034;-66
2022/11/22 01:47:16;;;;;;;19.88;11.00;;;7.30;99.90;;;;;;4953594;28;20043;-66
2022/11/22 01:49:47;;;;;;;22.23;12.90;;;7.00;99.90;;;;;;5016635;28;20054;-66
2022/11/22 01:52:17;;;;;;;21.88;11.10;;;7.00;99.90;;;;;;5030860;28;20077;-66
2022/11/22 01:54:46;;;;;;;23.27;10.52;;;7.30;99.90;;;;;;5021629;28;20029;-65
2022/11/22 01:57:19;;;;;;;19.13;10.95;;;7.40;99.90;;;;;;5029442;28;20439;-66
2022/11/22 01:59:51;;;;;;;27.98;12.95;;;7.40;99.90;;;;;;5029477;28;20419;-66
2022/11/22 02:02:17;;;;;;;22.05;12.05;;;7.20;99.90;;;;;;5020139;28;20068;-66
2022/11/22 02:04:43;;;;;;;21.67;9.73;;;7.50;99.90;;;;;;5024058;28;20044;-66
2022/11/22 02:07:17;;;;;;;17.65;10.18;;;7.60;99.90;;;;;;5030455;28;20120;-66
2022/11/22 02:09:45;;;;;;;14.52;9.70;;;7.40;99.90;;;;;;5031781;28;20088;-66
2022/11/22 02:12:12;;;;;;;26.85;13.93;;;7.40;99.90;;;;;;5024720;28;20061;-66
2022/11/22 02:14:39;;;;;;;18.70;11.70;;;7.60;99.90;;;;;;5024370;28;20045;-66
2022/11/22 02:17:04;;;;;;;17.23;10.07;;;7.60;99.90;;;;;;5015864;28;20029;-66
2022/11/22 02:19:35;;;;;;;19.60;10.50;;;7.50;99.90;;;;;;5023998;28;20403;-66
2022/11/22 02:22:29;;;;;;;20.48;12.70;;;7.50;99.90;;;;;;5023651;28;20037;-66
2022/11/22 02:24:56;;;;;;;15.90;9.25;;;7.40;99.90;;;;;;5029255;28;20037;-66
2022/11/22 02:27:22;;;;;;;18.70;11.10;;;7.60;99.90;;;;;;5031289;28;20037;-66
2022/11/22 02:29:48;;;;;;;17.65;10.25;;;7.40;99.90;;;;;;5032243;28;20116;-66
2022/11/22 02:32:13;;;;;;;16.85;10.70;;;7.70;99.90;;;;;;5029871;28;20240;-66
2022/11/22 02:34:44;;;;;;;21.42;11.90;;;7.60;99.90;;;;;;5023998;28;20046;-66
2022/11/22 02:37:13;;;;;;;22.40;12.25;;;7.50;99.90;;;;;;5028101;28;20156;-66
2022/11/22 02:39:40;;;;;;;19.13;10.05;;;7.60;99.90;;;;;;5021903;28;20399;-66
2022/11/22 02:42:06;;;;;;;20.90;11.57;;;7.60;99.90;;;;;;5030006;28;20036;-66
2022/11/22 02:44:32;;;;;;;25.70;12.85;;;7.60;99.90;;;;;;5018807;28;20121;-66
2022/11/22 02:46:58;;;;;;;21.25;13.07;;;7.70;99.90;;;;;;5025301;28;20044;-66
2022/11/22 02:49:24;;;;;;;20.27;12.40;;;7.60;99.90;;;;;;5031553;28;20037;-66
2022/11/22 02:51:51;;;;;;;18.38;10.40;;;7.60;99.90;;;;;;5023475;28;20068;-65
2022/11/22 02:54:18;;;;;;;20.50;11.85;;;7.50;99.90;;;;;;5030913;28;20549;-66
2022/11/22 02:56:43;;;;;;;17.92;11.57;;;7.70;99.90;;;;;;5031110;28;20033;-66
2022/11/22 02:59:09;;;;;;;18.30;11.18;;;7.60;99.90;;;;;;5023383;28;20038;-66
2022/11/22 03:01:35;;;;;;;22.60;12.75;;;7.50;99.90;;;;;;5023286;28;20442;-66
2022/11/22 03:04:01;;;;;;;18.00;12.45;;;7.60;99.90;;;;;;5031125;28;20034;-66
2022/11/22 03:06:26;;;;;;;16.45;10.07;;;7.80;99.90;;;;;;5029224;28;20048;-66
2022/11/22 03:08:52;;;;;;;21.85;11.02;;;7.70;99.90;;;;;;5031955;28;20037;-66
2022/11/22 03:11:17;;;;;;;19.42;11.43;;;7.70;99.90;;;;;;5021725;28;20216;-66
2022/11/22 03:13:43;;;;;;;20.83;10.98;;;7.80;99.90;;;;;;5026361;28;20104;-66
2022/11/22 03:16:09;;;;;;;20.42;13.27;;;7.80;99.90;;;;;;5020179;28;20184;-66
2022/11/22 03:18:36;;;;;;;20.33;11.98;;;7.80;99.90;;;;;;5023091;28;20033;-66
2022/11/22 03:21:07;;;;;;;15.15;10.38;;;7.60;99.90;;;;;;5031121;28;20388;-66
2022/11/22 03:23:32;;;;;;;24.00;14.73;;;7.60;99.90;;;;;;5024252;28;20037;-66
2022/11/22 03:25:58;;;;;;;26.30;12.23;;;7.80;99.90;;;;;;5030781;28;20079;-66
2022/11/22 03:28:24;;;;;;;19.50;10.18;;;7.70;99.90;;;;;;5021615;28;20128;-66
2022/11/22 03:30:50;;;;;;;20.52;9.45;;;7.60;99.90;;;;;;5029553;28;20041;-66
2022/11/22 03:33:15;;;;;;;20.25;9.20;;;7.80;99.90;;;;;;5019522;28;20420;-66
2022/11/22 03:35:41;;;;;;;14.75;8.50;;;7.90;99.90;;;;;;5031027;28;20069;-66
2022/11/22 03:38:07;;;;;;;21.45;10.60;;;7.90;99.90;;;;;;5029807;28;20036;-66
2022/11/22 03:40:33;;;;;;;16.73;10.75;;;7.80;99.90;;;;;;5030885;28;20120;-66
2022/11/22 03:43:00;;;;;;;20.27;10.52;;;7.80;99.90;;;;;;5026428;28;20125;-66
2022/11/22 03:45:29;;;;;;;22.60;13.40;;;7.70;99.90;;;;;;5023380;28;20042;-66
2022/11/22 03:47:55;;;;;;;21.75;10.93;;;7.60;99.90;;;;;;5028411;28;20039;-66
2022/11/22 03:50:21;;;;;;;22.60;11.68;;;7.80;99.90;;;;;;5031133;28;20045;-66
2022/11/22 03:52:47;;;;;;;23.65;13.20;;;7.90;99.90;;;;;;5019917;28;20095;-66
2022/11/22 03:55:14;;;;;;;22.88;12.02;;;7.90;99.90;;;;;;5026053;28;20033;-66
2022/11/22 03:57:39;;;;;;;21.52;9.32;;;7.90;99.90;;;;;;5028454;28;20034;-65
2022/11/22 04:00:06;;;;;;;16.48;9.52;;;7.60;99.90;;;;;;5024272;28;20112;-65
2022/11/22 04:02:32;;;;;;;19.95;12.65;;;7.70;99.90;;;;;;5030611;28;20073;-66
2022/11/22 04:04:57;;;;;;;19.95;12.95;;;7.60;99.90;;;;;;5030507;28;20072;-66
2022/11/22 04:07:23;;;;;;;29.73;15.52;;;7.80;99.90;;;;;;5030117;28;20049;-66
2022/11/22 04:09:48;;;;;;;23.13;12.10;;;7.70;99.90;;;;;;5030866;28;20037;-66
2022/11/22 04:12:14;;;;;;;13.90;8.27;;;7.70;99.90;;;;;;5027971;28;20046;-66
2022/11/22 04:17:39;;;;;;;16.75;11.65;;;7.90;99.90;;;;;;5023331;28;20497;-66
2022/11/22 04:23:12;;;;;;;14.82;9.30;;;8.10;99.90;;;;;;5025532;28;20511;-66
2022/11/22 04:25:40;;;;;;;18.98;11.35;;;7.90;99.90;;;;;;5032113;28;20045;-66
2022/11/22 04:28:08;;;;;;;32.20;14.60;;;8.20;99.90;;;;;;5024594;28;20103;-66
2022/11/22 04:33:19;;;;;;;21.35;12.43;;;8.20;99.90;;;;;;5033950;28;20053;-66
2022/11/22 04:35:44;;;;;;;14.90;9.52;;;8.10;99.90;;;;;;5027436;28;20038;-66
2022/11/22 04:38:11;;;;;;;23.63;13.77;;;8.20;99.90;;;;;;5041388;28;20551;-66
2022/11/22 04:40:37;;;;;;;22.60;10.50;;;8.40;99.90;;;;;;5033109;28;20046;-66
2022/11/22 04:45:48;;;;;;;25.02;11.38;;;8.30;99.90;;;;;;5033947;28;20499;-66
2022/11/22 04:48:14;;;;;;;22.98;12.23;;;8.30;99.90;;;;;;5029384;28;20050;-66
2022/11/22 04:53:26;;;;;;;16.50;10.27;;;8.60;99.90;;;;;;5034110;28;20045;-66
2022/11/22 04:55:52;;;;;;;21.10;12.15;;;8.60;99.90;;;;;;5033022;28;20069;-66
2022/11/22 04:58:17;;;;;;;23.85;11.68;;;8.40;99.90;;;;;;5026497;28;20072;-66
2022/11/22 05:00:43;;;;;;;23.15;13.52;;;8.40;99.90;;;;;;5013424;28;20570;-66
2022/11/22 05:03:09;;;;;;;21.55;12.50;;;8.40;99.90;;;;;;5029923;28;20057;-66
2022/11/22 05:05:39;;;;;;;25.48;13.50;;;8.70;99.90;;;;;;5025939;28;20029;-66
2022/11/22 05:08:06;;;;;;;27.33;14.13;;;8.40;99.90;;;;;;5029893;28;20034;-66
2022/11/22 05:10:55;;;;;;;17.92;10.77;;;8.70;99.90;;;;;;5029718;28;20132;-66
2022/11/22 05:13:19;;;;;;;19.80;11.30;;;8.70;99.90;;;;;;5026931;28;20543;-66
2022/11/22 05:15:45;;;;;;;21.60;8.98;;;8.60;99.90;;;;;;5007405;28;20046;-66
2022/11/22 05:18:10;;;;;;;20.05;10.90;;;8.40;99.90;;;;;;5021342;28;20094;-66
2022/11/22 05:20:36;;;;;;;29.90;14.65;;;8.50;99.90;;;;;;5025735;28;20475;-66
2022/11/22 05:25:46;;;;;;;19.90;11.25;;;8.70;99.90;;;;;;5029236;28;20055;-66
2022/11/22 05:28:11;;;;;;;19.83;11.45;;;8.80;99.90;;;;;;5031109;28;20037;-66
2022/11/22 05:30:40;;;;;;;17.05;9.85;;;8.60;99.90;;;;;;5029455;28;20045;-66
2022/11/22 05:33:06;;;;;;;22.85;10.57;;;8.80;99.90;;;;;;5021067;28;20046;-66
2022/11/22 05:35:32;;;;;;;18.60;9.93;;;8.80;99.90;;;;;;5023186;28;20042;-66
2022/11/22 05:37:58;;;;;;;19.20;10.65;;;8.80;99.90;;;;;;5033112;28;20026;-66
2022/11/22 05:40:24;;;;;;;21.58;10.95;;;8.70;99.90;;;;;;5028817;28;20465;-66
2022/11/22 05:42:50;;;;;;;20.27;11.82;;;8.50;99.90;;;;;;5032513;28;20113;-66
2022/11/22 05:45:16;;;;;;;27.60;12.13;;;8.70;99.90;;;;;;5032933;28;20395;-66
2022/11/22 05:47:41;;;;;;;23.15;11.43;;;8.50;99.90;;;;;;5032777;28;20045;-66
2022/11/22 05:50:07;;;;;;;24.95;9.50;;;8.50;99.90;;;;;;5032339;28;20041;-66
2022/11/22 05:52:33;;;;;;;15.10;7.15;;;8.10;99.90;;;;;;5030583;28;20120;-66
2022/11/22 05:54:58;;;;;;;15.43;8.13;;;8.00;99.90;;;;;;5032890;28;20031;-66
2022/11/22 05:57:24;;;;;;;17.05;7.95;;;7.80;99.90;;;;;;5032525;28;20037;-66
2022/11/22 05:59:50;;;;;;;18.15;9.70;;;7.90;99.90;;;;;;5032444;28;20577;-66
2022/11/22 06:02:15;;;;;;;16.05;8.77;;;7.60;99.90;;;;;;5032712;28;20048;-66
2022/11/22 06:04:41;;;;;;;17.38;9.63;;;7.70;99.90;;;;;;5031410;28;20045;-66
2022/11/22 06:07:07;;;;;;;14.32;8.15;;;7.80;99.90;;;;;;5031790;28;20399;-66
2022/11/22 06:09:32;;;;;;;15.02;8.60;;;7.80;99.90;;;;;;5024578;28;20134;-66
2022/11/22 06:11:58;;;;;;;13.70;7.10;;;7.70;99.90;;;;;;5019717;28;20041;-66
2022/11/22 06:14:23;;;;;;;17.55;7.88;;;7.40;99.90;;;;;;5030726;28;20481;-66
2022/11/22 06:16:50;;;;;;;19.27;7.95;;;7.60;99.90;;;;;;5031788;28;20076;-66
2022/11/22 06:19:15;;;;;;;18.58;9.75;;;7.60;99.90;;;;;;5031630;28;20034;-65
2022/11/22 06:21:41;;;;;;;22.98;10.25;;;7.50;99.90;;;;;;5031244;28;20044;-65
2022/11/22 06:24:07;;;;;;;17.13;7.50;;;7.20;99.90;;;;;;5028627;28;20041;-65
2022/11/22 06:26:33;;;;;;;16.33;9.10;;;7.30;99.90;;;;;;5030223;28;20045;-65
2022/11/22 06:28:58;;;;;;;12.10;7.88;;;7.10;99.90;;;;;;5028659;28;20038;-65
2022/11/22 06:31:25;;;;;;;14.52;7.32;;;7.00;99.90;;;;;;5024104;28;20037;-65
2022/11/22 06:33:58;;;;;;;20.00;9.95;;;7.30;99.90;;;;;;5031698;28;20509;-66
2022/11/22 06:36:26;;;;;;;20.35;8.93;;;7.30;99.90;;;;;;5024315;28;20043;-66
2022/11/22 06:38:52;;;;;;;25.30;9.45;;;6.90;99.90;;;;;;5028196;28;20128;-66
2022/11/22 06:41:20;;;;;;;24.52;10.20;;;7.20;99.90;;;;;;5028535;28;20052;-65
2022/11/22 06:43:47;;;;;;;22.30;10.98;;;7.20;99.90;;;;;;5030707;28;20056;-66
2022/11/22 06:46:13;;;;;;;23.63;10.88;;;7.10;99.90;;;;;;5020495;28;20498;-65
2022/11/22 06:48:40;;;;;;;22.70;9.07;;;7.20;99.90;;;;;;5031303;28;20051;-66
2022/11/22 06:51:32;;;;;;;26.52;8.82;;;7.30;99.90;;;;;;5031568;28;20167;-65
2022/11/22 06:53:58;;;;;;;17.23;8.45;;;7.40;99.90;;;;;;5028269;28;20050;-66
2022/11/22 06:56:38;;;;;;;18.90;8.40;;;7.20;99.90;;;;;;5026930;28;20055;-65
2022/11/22 06:59:05;;;;;;;27.23;9.57;;;7.10;99.90;;;;;;5016997;28;20462;-66
2022/11/22 07:01:32;;;;;;;24.77;10.10;;;7.30;99.90;;;;;;5030156;28;20034;-66
2022/11/22 07:03:58;;;;;;;21.67;8.50;;;7.20;99.90;;;;;;5031442;28;20048;-66
2022/11/22 07:06:26;;;;;;;23.98;8.57;;;7.50;99.90;;;;;;5024185;28;20050;-65
2022/11/22 07:08:52;;;;;;;15.88;6.38;;;7.40;99.90;;;;;;5026598;28;20120;-65
2022/11/22 07:11:23;;;;;;;15.82;6.45;;;7.40;99.90;;;;;;5028597;28;20171;-65
2022/11/22 07:13:50;;;;;;;20.75;5.32;;;7.30;99.90;;;;;;5025076;28;20037;-65
2022/11/22 07:16:17;;;;;;;16.33;5.20;;;7.20;99.90;;;;;;5025248;28;20120;-65
2022/11/22 07:18:43;;;;;;;20.23;5.90;;;7.30;99.90;;;;;;5021155;28;20034;-66
2022/11/22 07:21:14;;;;;;;24.88;6.35;;;7.30;99.90;;;;;;5027624;28;20041;-66
2022/11/22 07:23:42;;;;;;;18.40;6.35;;;7.40;99.90;;;;;;5022633;28;20122;-66
2022/11/22 07:26:08;;;;;;;17.45;6.28;;;7.50;99.90;;;;;;5029721;28;20541;-67
2022/11/22 07:28:34;;;;;;;24.15;5.93;;;7.80;99.90;;;;;;5027328;28;20055;-66
2022/11/22 07:31:01;;;;;;;12.00;4.45;;;7.70;99.90;;;;;;5022187;28;20033;-66
2022/11/22 07:33:27;;;;;;;10.52;3.53;;;7.80;99.90;;;;;;5026881;28;20049;-66
2022/11/22 07:35:53;;;;;;;13.10;4.60;;;7.90;99.90;;;;;;5020037;28;20034;-66
2022/11/22 07:38:18;;;;;;;18.02;4.65;;;7.90;99.90;;;;;;5019260;28;20075;-65
2022/11/22 07:40:44;;;;;;;19.08;4.90;;;7.90;99.90;;;;;;5027810;28;20037;-66
2022/11/22 07:43:09;;;;;;;22.83;5.88;;;8.20;99.90;;;;;;5024062;28;20487;-66
2022/11/22 07:45:35;;;;;;;16.83;5.80;;;8.00;99.90;;;;;;5022399;28;20471;-66
2022/11/22 07:48:01;;;;;;;20.70;6.30;;;8.20;99.90;;;;;;5025324;28;20419;-66
2022/11/22 07:50:27;;;;;;;15.35;4.95;;;8.20;99.90;;;;;;5027769;28;20411;-66
2022/11/22 07:52:57;;;;;;;15.95;5.80;;;8.20;99.90;;;;;;5026850;28;20041;-66
2022/11/22 07:55:24;;;;;;;14.73;5.50;;;8.20;99.90;;;;;;5028903;28;20037;-66
2022/11/22 07:57:51;;;;;;;15.13;5.38;;;8.20;99.90;;;;;;5030289;28;20037;-66
2022/11/22 08:00:17;;;;;;;10.80;4.82;;;8.20;99.90;;;;;;5027474;28;20060;-73
2022/11/22 08:02:43;;;;;;;16.58;6.47;;;8.20;99.90;;;;;;5032733;28;20507;-65
2022/11/22 08:05:09;;;;;;;17.42;6.25;;;8.10;99.90;;;;;;5031131;28;20095;-66
2022/11/22 08:07:34;;;;;;;26.20;8.35;;;8.10;99.90;;;;;;5027520;28;20041;-66
2022/11/22 08:10:00;;;;;;;15.48;7.55;;;8.10;99.90;;;;;;5026627;28;20088;-66
2022/11/22 08:12:25;;;;;;;18.88;7.22;;;8.10;99.90;;;;;;5025696;28;20057;-66
2022/11/22 08:14:51;;;;;;;29.50;9.77;;;8.10;99.90;;;;;;5032138;28;20509;-66
2022/11/22 08:17:17;;;;;;;27.02;9.15;;;8.30;99.90;;;;;;5025992;28;20471;-66
2022/11/22 08:19:42;;;;;;;18.02;7.97;;;8.10;99.90;;;;;;5028851;28;20495;-66
2022/11/22 08:22:08;;;;;;;13.60;7.00;;;8.10;99.90;;;;;;5043448;28;20138;-68
2022/11/22 08:24:33;;;;;;;14.77;7.15;;;8.10;99.90;;;;;;5032453;28;20045;-68
2022/11/22 08:26:59;;;;;;;16.33;8.27;;;8.10;99.90;;;;;;5027606;28;20398;-68
2022/11/22 08:29:24;;;;;;;17.40;6.05;;;8.20;99.90;;;;;;5029361;28;20499;-68
2022/11/22 08:31:50;;;;;;;15.88;7.43;;;8.30;99.90;;;;;;5026969;28;20037;-68
2022/11/22 08:34:16;;;;;;;10.30;5.78;;;8.20;99.90;;;;;;5042280;28;20049;-68
2022/11/22 08:36:41;;;;;;;17.33;7.63;;;8.20;99.90;;;;;;5024159;28;20845;-68
2022/11/22 08:39:07;;;;;;;15.40;6.93;;;8.20;99.90;;;;;;5026817;28;20440;-68
2022/11/22 08:41:32;;;;;;;11.75;6.15;;;8.20;99.90;;;;;;5024094;28;20124;-69
2022/11/22 08:43:58;;;;;;;13.30;6.25;;;8.10;99.90;;;;;;5024923;28;20048;-68
2022/11/22 08:46:23;;;;;;;11.63;6.97;;;8.10;99.90;;;;;;5008041;28;20410;-68
2022/11/22 08:48:51;;;;;;;15.05;7.47;;;8.20;99.90;;;;;;5029060;28;20038;-69
2022/11/22 08:51:17;;;;;;;11.32;6.18;;;8.10;99.90;;;;;;5028131;28;20099;-68
2022/11/22 08:53:43;;;;;;;10.68;6.20;;;8.20;99.90;;;;;;5024058;28;20049;-68
2022/11/22 08:56:14;;;;;;;9.95;6.10;;;8.20;99.90;;;;;;5026024;28;20544;-68
2022/11/22 08:58:40;;;;;;;17.77;7.20;;;8.30;99.90;;;;;;5023613;28;20120;-68
2022/11/22 09:01:06;;;;;;;14.02;6.47;;;8.20;99.90;;;;;;5030728;28;20029;-68
2022/11/22 09:03:36;;;;;;;13.85;6.28;;;8.20;99.90;;;;;;5021886;28;20073;-68
2022/11/22 09:06:03;;;;;;;9.70;5.90;;;8.20;99.90;;;;;;5010269;28;20038;-68
2022/11/22 09:08:29;;;;;;;9.65;4.88;;;8.30;99.90;;;;;;5020964;28;20499;-68
2022/11/22 09:10:58;;;;;;;13.80;5.30;;;8.40;99.90;;;;;;5020540;28;20513;-68
2022/11/22 09:13:24;;;;;;;11.77;4.70;;;8.20;99.90;;;;;;5008350;28;20053;-68
2022/11/22 09:15:49;;;;;;;10.32;4.32;;;8.20;99.90;;;;;;5024284;28;20041;-69
2022/11/22 09:18:15;;;;;;;9.98;4.20;;;8.20;99.90;;;;;;5022847;28;20033;-68
2022/11/22 09:20:40;;;;;;;17.25;5.57;;;8.30;99.90;;;;;;5028290;28;20045;-68
2022/11/22 09:23:06;;;;;;;12.32;4.45;;;8.30;99.90;;;;;;5024642;28;20041;-68
2022/11/22 09:25:31;;;;;;;11.55;4.93;;;8.30;99.90;;;;;;5018973;28;20049;-68
2022/11/22 09:28:02;;;;;;;11.48;4.50;;;8.30;99.90;;;;;;5017283;28;20041;-68
2022/11/22 09:30:31;;;;;;;7.80;3.33;;;8.30;99.90;;;;;;5027691;28;20044;-69
2022/11/22 09:32:57;;;;;;;7.13;3.38;;;8.30;99.90;;;;;;5030839;28;20042;-69
2022/11/22 09:35:22;;;;;;;12.70;3.70;;;8.20;99.90;;;;;;5028174;28;20501;-69
2022/11/22 09:37:48;;;;;;;8.82;3.28;;;8.30;99.90;;;;;;5020044;28;20038;-68
2022/11/22 09:40:15;;;;;;;13.13;4.72;;;8.40;99.90;;;;;;5024747;28;20034;-68
2022/11/22 09:43:22;;;;;;;11.40;4.25;;;8.30;99.90;;;;;;5006208;28;20046;-68
2022/11/22 09:46:08;;;;;;;9.95;3.75;;;8.30;99.90;;;;;;5015837;28;20106;-68
2022/11/22 09:48:39;;;;;;;7.60;3.95;;;8.30;99.90;;;;;;5022954;28;20041;-69
2022/11/22 09:51:16;;;;;;;9.65;3.30;;;8.30;99.90;;;;;;5029293;28;20088;-68
2022/11/22 09:53:47;;;;;;;11.10;4.28;;;8.40;99.90;;;;;;5024970;28;20465;-69
2022/11/22 09:56:18;;;;;;;8.70;3.83;;;8.30;99.90;;;;;;5019683;28;20137;-69
2022/11/22 09:58:55;;;;;;;15.60;4.70;;;8.30;99.90;;;;;;5024894;28;20069;-69
2022/11/22 10:01:24;;;;;;;10.48;4.05;;;8.40;99.90;;;;;;5022270;28;20069;-69
2022/11/22 10:04:05;;;;;;;13.35;4.55;;;8.30;99.90;;;;;;5007771;28;20057;-68
2022/11/22 10:06:33;;;;;;;10.07;4.28;;;8.40;99.90;;;;;;5024866;28;20037;-68
2022/11/22 10:09:32;;;;;;;9.30;3.60;;;8.40;99.90;;;;;;5029515;28;20556;-68
2022/11/22 10:12:32;;;;;;;7.57;3.35;;;8.50;99.90;;;;;;5025318;28;20187;-69
2022/11/22 10:15:19;;;;;;;7.75;2.95;;;8.60;99.90;;;;;;5026756;28;20077;-69
2022/11/22 10:17:56;;;;;;;9.52;3.38;;;8.50;99.90;;;;;;5022614;28;20034;-70
2022/11/22 10:20:24;;;;;;;6.40;3.15;;;8.50;99.90;;;;;;5026787;28;20658;-69
2022/11/22 10:22:51;;;;;;;6.88;3.00;;;8.50;99.90;;;;;;5024494;28;20111;-69
2022/11/22 10:25:23;;;;;;;12.48;3.75;;;8.50;99.90;;;;;;5029050;28;20479;-69
2022/11/22 10:28:01;;;;;;;7.28;3.22;;;8.60;99.90;;;;;;5023985;28;20041;-69
2022/11/22 10:30:34;;;;;;;7.88;3.05;;;8.60;19.60;;;;;;5021078;28;20061;-69
2022/11/22 10:33:21;;;;;;;6.90;2.50;;;8.60;1.00;;;;;;5027366;28;20030;-69
2022/11/22 10:36:09;;;;;;;9.00;2.83;;;8.50;1.00;;;;;;5013637;28;20510;-69
2022/11/22 10:38:58;;;;;;;7.85;2.85;;;8.60;99.90;;;;;;5026808;28;20115;-69
2022/11/22 10:41:44;;;;;;;5.05;2.47;;;8.50;99.90;;;;;;5016671;28;20053;-69
2022/11/22 10:44:40;;;;;;;6.03;2.55;;;8.60;97.00;;;;;;5031249;28;20496;-69
2022/11/22 10:47:32;;;;;;;14.35;3.40;;;8.40;1.00;;;;;;5023043;28;20064;-69
2022/11/22 10:50:19;;;;;;;6.38;2.53;;;8.50;1.00;;;;;;5025200;28;20056;-69
2022/11/22 10:53:29;;;;;;;10.48;2.95;;;8.50;99.90;;;;;;5027349;28;20103;-69
2022/11/22 10:56:02;;;;;;;7.57;2.83;;;8.50;91.70;;;;;;5010943;28;20053;-69
2022/11/22 10:58:51;;;;;;;9.32;3.25;;;8.60;1.00;;;;;;5021052;28;20041;-69
2022/11/22 11:01:38;;;;;;;6.65;2.90;;;8.50;99.90;;;;;;5024473;28;20091;-69
2022/11/22 11:04:04;;;;;;;;;;;8.50;1.00;;;;;;5027092;28;20106;-69
2022/11/22 11:06:47;;;;;;;8.23;2.90;;;8.60;99.90;;;;;;5025755;28;19917;-69
2022/11/22 11:09:21;;;;;;;11.10;3.10;;;8.60;99.90;;;;;;5029604;28;20045;-69
2022/11/22 11:11:50;;;;;;;6.15;2.33;;;8.60;99.90;;;;;;5022437;28;20038;-69
2022/11/22 11:14:44;;;;;;;7.80;2.63;;;8.50;99.90;;;;;;5022010;28;20060;-69
2022/11/22 11:17:17;;;;;;;6.63;2.30;;;7.20;1.00;;;;;;4990666;28;20132;-69
2022/11/22 11:19:46;;;;;;;9.18;2.60;;;8.60;1.00;;;;;;5023389;28;20045;-69
2022/11/22 11:22:22;;;;;;;12.10;3.20;;;8.60;1.00;;;;;;5020996;28;20136;-69
2022/11/22 11:24:47;;;;;;;7.72;3.05;;;8.60;35.40;;;;;;5022538;28;20029;-69
2022/11/22 11:27:15;;;;;;;8.10;3.25;;;8.70;1.00;;;;;;5020051;28;20553;-69
2022/11/22 11:29:45;;;;;;;4.72;2.42;;;8.70;99.90;;;;;;5027330;28;20098;-70
2022/11/22 11:32:14;;;;;;;6.43;2.70;;;8.70;99.90;;;;;;5021636;28;20034;-69
2022/11/22 11:34:46;;;;;;;6.13;2.78;;;8.60;99.90;;;;;;5031253;28;20096;-69
2022/11/22 11:37:39;;;;;;;10.95;2.90;;;8.60;57.10;;;;;;5025537;28;20041;-69
2022/11/22 11:40:24;;;;;;;8.52;2.67;;;8.70;1.00;;;;;;5028765;28;20124;-69
2022/11/22 11:43:09;;;;;;;10.25;3.30;;;8.70;1.00;;;;;;5029501;28;20126;-69
2022/11/22 11:45:35;;;;;;;9.00;2.95;;;9.00;1.00;;;;;;5025752;28;20076;-69
2022/11/22 11:48:00;;;;;;;7.55;2.70;;;8.70;1.00;;;;;;5026429;28;22604;-69
2022/11/22 11:50:29;;;;;;;9.30;2.53;;;8.70;99.90;;;;;;5028454;28;20458;-69
2022/11/22 11:53:14;;;;;;;12.15;2.15;;;8.60;72.20;;;;;;5027975;28;20549;-70
2022/11/22 11:55:39;;;;;;;2.92;2.22;;;8.70;1.00;;;;;;5022726;28;20038;-70
2022/11/22 11:58:19;;;;;;;16.10;3.53;;;8.60;1.00;;;;;;5029009;28;20041;-69
2022/11/22 12:00:45;;;;;;;9.93;2.72;;;8.70;93.20;;;;;;5026179;28;20029;-70
2022/11/22 12:03:15;;;;;;;9.30;2.80;;;8.70;1.00;;;;;;5030141;28;20064;-69
2022/11/22 12:05:40;;;;;;;8.43;3.00;;;8.60;1.00;;;;;;5022601;28;20044;-69
2022/11/22 12:08:30;;;;;;;9.80;3.13;;;8.70;1.00;;;;;;5025651;28;20033;-70
2022/11/22 12:11:04;;;;;;;8.30;2.45;;;8.70;99.90;;;;;;5016755;28;20048;-69
2022/11/22 12:13:40;;;;;;;7.75;2.65;;;8.70;99.90;;;;;;5025891;28;20041;-70
2022/11/22 12:16:22;;;;;;;4.75;2.47;;;8.70;99.90;;;;;;5020508;28;20029;-69
2022/11/22 12:19:19;;;;;;;7.70;2.55;;;8.70;99.90;;;;;;5025618;28;20037;-70
2022/11/22 12:21:45;;;;;;;;;;;8.70;99.90;;;;;;5009036;28;20042;-70
2022/11/22 12:24:12;;;;;;;9.50;2.87;;;8.80;99.90;;;;;;5030805;28;19948;-69
2022/11/22 12:26:38;;;;;;;7.78;2.60;;;8.80;15.60;;;;;;5026239;28;20072;-70
2022/11/22 12:29:04;;;;;;;7.15;2.20;;;8.80;1.00;;;;;;5023641;28;20037;-70
2022/11/22 12:31:37;;;;;;;6.90;2.25;;;8.80;1.00;;;;;;5025266;28;20081;-69
2022/11/22 12:34:14;;;;;;;4.15;2.40;;;8.80;1.00;;;;;;5033816;28;20388;-70
2022/11/22 12:36:43;;;;;;;11.65;2.85;;;8.90;1.00;;;;;;5028891;28;20119;-70
2022/11/22 12:39:17;;;;;;;12.98;2.63;;;8.90;1.00;;;;;;5022984;28;20041;-70
2022/11/22 12:41:45;;;;;;;8.70;2.58;;;8.90;1.00;;;;;;5027481;28;20507;-70
2022/11/22 12:44:15;;;;;;;5.47;2.50;;;8.80;1.00;;;;;;5024863;28;20041;-70
2022/11/22 12:47:03;;;;;;;6.20;2.42;;;8.90;1.00;;;;;;5023041;28;20159;-70
2022/11/22 12:49:39;;;;;;;8.45;2.63;;;8.90;1.00;;;;;;5023627;28;20055;-70
2022/11/22 12:52:14;;;;;;;7.32;1.98;;;8.90;1.00;;;;;;5022866;28;20045;-70
2022/11/22 12:54:56;;;;;;;6.60;2.28;;;8.90;99.90;;;;;;5018765;28;20353;-70
2022/11/22 12:57:47;;;;;;;8.52;2.53;;;9.00;1.00;;;;;;5025970;28;20042;-70
2022/11/22 13:00:18;;;;;;;8.00;2.17;;;9.00;99.90;;;;;;5017904;28;20041;-70
2022/11/22 13:02:56;;;;;;;6.57;2.30;;;8.90;99.90;;;;;;5031341;28;20112;-70
2022/11/22 13:05:29;;;;;;;10.07;2.72;;;8.90;58.80;;;;;;5021155;28;20396;-70
2022/11/22 13:08:02;;;;;;;8.13;2.65;;;9.00;99.90;;;;;;5025805;28;21336;-70
2022/11/22 13:10:57;;;;;;;5.03;2.50;;;9.00;99.90;;;;;;5013155;28;20525;-70
2022/11/22 13:13:29;;;;;;;6.78;2.42;;;9.00;99.90;;;;;;5005546;28;20057;-70
2022/11/22 13:15:57;;;;;;;8.32;2.40;;;9.00;98.50;;;;;;5025258;28;20034;-70